Time;durP1;ratioP1;P1;durP2;ratioP2;P2;SDS_P1;SDS_P2;PMS_P1;PMS_P2;Temp;Humidity;BMP_temperature;BMP_pressure;BME280_temperature;BME280_humidity;BME280_pressure;Samples;Min_cycle;Max_cycle;Signal;HPM_P1;HPM_P2
2024/01/09 00:01:45;;;;;;;7.87;3.30;;;-1.40;99.90;;;;;;4923968;28;20520;-59
2024/01/09 00:04:11;;;;;;;6.63;3.53;;;-1.40;99.90;;;;;;4928498;28;20050;-59
2024/01/09 00:06:37;;;;;;;6.60;3.27;;;-1.50;99.90;;;;;;4929754;28;20047;-60
2024/01/09 00:09:03;;;;;;;8.17;3.10;;;-1.50;99.90;;;;;;4933170;28;20202;-60
2024/01/09 00:11:29;;;;;;;6.40;3.47;;;-1.50;99.90;;;;;;4944882;28;20074;-60
2024/01/09 00:13:55;;;;;;;7.20;3.53;;;-1.50;99.90;;;;;;4925859;28;20577;-58
2024/01/09 00:16:22;;;;;;;7.07;2.57;;;-1.50;99.90;;;;;;4935149;28;20050;-60
2024/01/09 00:18:53;;;;;;;8.73;3.13;;;-1.60;99.90;;;;;;4925643;28;20422;-60
2024/01/09 00:21:22;;;;;;;6.70;2.60;;;-1.60;99.90;;;;;;4910410;28;20071;-61
2024/01/09 00:23:49;;;;;;;5.67;3.13;;;-1.60;99.90;;;;;;4925445;28;20070;-60
2024/01/09 00:26:15;;;;;;;7.63;3.30;;;-1.60;99.90;;;;;;4944576;28;20251;-61
2024/01/09 00:28:40;;;;;;;6.73;3.40;;;-1.60;99.90;;;;;;4925553;28;20074;-60
2024/01/09 00:31:06;;;;;;;7.73;3.43;;;-1.60;99.90;;;;;;4948125;28;20048;-61
2024/01/09 00:33:35;;;;;;;5.50;2.77;;;-1.70;99.90;;;;;;4943598;28;20387;-60
2024/01/09 00:36:07;;;;;;;7.70;2.80;;;-1.70;99.90;;;;;;4940491;28;20047;-59
2024/01/09 00:38:34;;;;;;;5.87;2.83;;;-1.70;99.90;;;;;;4937787;28;20043;-60
2024/01/09 00:41:00;;;;;;;6.10;2.83;;;-1.70;99.90;;;;;;4929208;28;20047;-59
2024/01/09 00:43:25;;;;;;;4.97;2.80;;;-1.70;99.90;;;;;;4911839;28;20076;-61
2024/01/09 00:45:51;;;;;;;7.67;3.00;;;-1.70;99.90;;;;;;4946641;28;20040;-61
2024/01/09 00:48:17;;;;;;;7.87;3.40;;;-1.70;99.90;;;;;;4939292;28;20516;-60
2024/01/09 00:50:42;;;;;;;6.47;3.20;;;-1.70;99.90;;;;;;4924947;28;20063;-61
2024/01/09 00:53:08;;;;;;;7.37;3.00;;;-1.70;99.90;;;;;;4908159;28;20109;-61
2024/01/09 00:55:34;;;;;;;6.20;3.07;;;-1.70;99.90;;;;;;4939928;28;20387;-60
2024/01/09 00:57:59;;;;;;;11.50;4.63;;;-1.80;99.90;;;;;;4950939;28;20047;-59
2024/01/09 01:00:25;;;;;;;4.67;2.90;;;-1.80;99.90;;;;;;4928154;28;20157;-60
2024/01/09 01:02:51;;;;;;;8.07;3.50;;;-1.80;99.90;;;;;;4916131;28;20120;-60
2024/01/09 01:05:16;;;;;;;6.67;3.47;;;-1.80;99.90;;;;;;4928817;28;20073;-59
2024/01/09 01:07:43;;;;;;;8.30;2.87;;;-1.80;99.90;;;;;;4931740;28;20051;-60
2024/01/09 01:10:13;;;;;;;5.50;3.10;;;-1.80;99.90;;;;;;4935009;28;20051;-60
2024/01/09 01:12:39;;;;;;;8.60;3.07;;;-1.90;99.90;;;;;;4931952;28;20410;-61
2024/01/09 01:15:05;;;;;;;7.33;3.00;;;-1.90;99.90;;;;;;4928645;28;20043;-60
2024/01/09 01:17:31;;;;;;;9.83;3.87;;;-1.90;99.90;;;;;;4927553;28;20075;-61
2024/01/09 01:19:57;;;;;;;6.67;3.10;;;-1.90;99.90;;;;;;4949751;28;20506;-60
2024/01/09 01:22:23;;;;;;;6.10;2.80;;;-1.90;99.90;;;;;;4927908;29;20104;-61
2024/01/09 01:24:48;;;;;;;7.47;2.70;;;-1.90;99.90;;;;;;4947284;28;20035;-60
2024/01/09 01:27:14;;;;;;;5.63;2.80;;;-1.90;99.90;;;;;;4948498;28;20078;-60
2024/01/09 01:29:40;;;;;;;5.90;3.20;;;-1.90;99.90;;;;;;4925897;28;20051;-60
2024/01/09 01:32:09;;;;;;;4.97;2.87;;;-1.90;99.90;;;;;;4934171;28;20059;-59
2024/01/09 01:34:35;;;;;;;5.83;2.93;;;-2.00;99.90;;;;;;4928958;28;20051;-60
2024/01/09 01:37:01;;;;;;;7.83;3.00;;;-2.00;99.90;;;;;;4938683;28;20081;-60
2024/01/09 01:39:26;;;;;;;8.20;3.37;;;-2.00;99.90;;;;;;4928112;28;20075;-61
2024/01/09 01:41:52;;;;;;;8.77;3.00;;;-2.00;99.90;;;;;;4926833;28;20101;-60
2024/01/09 01:44:18;;;;;;;6.03;2.70;;;-2.00;99.90;;;;;;4929783;28;20082;-59
2024/01/09 01:46:46;;;;;;;6.83;3.10;;;-2.00;99.90;;;;;;4932852;28;20059;-60
2024/01/09 01:49:14;;;;;;;6.70;3.33;;;-2.00;99.90;;;;;;4928637;28;20051;-60
2024/01/09 01:51:41;;;;;;;7.97;2.93;;;-2.10;99.90;;;;;;4929926;28;20074;-60
2024/01/09 01:54:07;;;;;;;6.07;2.93;;;-2.10;99.90;;;;;;4922657;28;20727;-60
2024/01/09 01:56:34;;;;;;;4.93;2.90;;;-2.10;99.90;;;;;;4923448;28;20162;-60
2024/01/09 01:59:01;;;;;;;7.47;3.23;;;-2.20;99.90;;;;;;4944861;28;20411;-60
2024/01/09 02:01:28;;;;;;;7.83;3.50;;;-2.20;99.90;;;;;;4959704;28;20053;-61
2024/01/09 02:03:55;;;;;;;7.13;3.00;;;-2.20;99.90;;;;;;4927089;28;20089;-60
2024/01/09 02:06:21;;;;;;;6.70;3.13;;;-2.20;99.90;;;;;;4927862;28;20047;-60
2024/01/09 02:08:48;;;;;;;8.07;3.40;;;-2.20;99.90;;;;;;4927466;28;20126;-60
2024/01/09 02:11:14;;;;;;;8.13;3.47;;;-2.20;99.90;;;;;;4928651;28;20126;-60
2024/01/09 02:13:40;;;;;;;8.87;3.20;;;-2.20;99.90;;;;;;4945890;28;20062;-59
2024/01/09 02:16:06;;;;;;;6.00;3.23;;;-2.20;99.90;;;;;;4958692;28;20043;-59
2024/01/09 02:18:31;;;;;;;9.77;3.30;;;-2.20;99.90;;;;;;4933439;28;20039;-60
2024/01/09 02:20:57;;;;;;;7.53;3.13;;;-2.20;99.90;;;;;;4929149;28;20035;-61
2024/01/09 02:23:23;;;;;;;8.30;4.03;;;-2.20;99.90;;;;;;4928392;28;20045;-58
2024/01/09 02:25:50;;;;;;;7.73;3.40;;;-2.20;99.90;;;;;;4933670;28;20036;-60
2024/01/09 02:28:26;;;;;;;6.00;2.93;;;-2.20;99.90;;;;;;4991705;28;20517;-60
2024/01/09 02:30:53;;;;;;;5.47;2.70;;;-2.20;99.90;;;;;;4927531;28;20047;-60
2024/01/09 02:33:19;;;;;;;6.90;3.10;;;-2.20;99.90;;;;;;4927120;29;20039;-60
2024/01/09 02:35:45;;;;;;;8.13;3.20;;;-2.30;99.90;;;;;;4937338;28;20432;-60
2024/01/09 02:38:11;;;;;;;4.83;2.77;;;-2.30;99.90;;;;;;4945647;28;20126;-60
2024/01/09 02:40:37;;;;;;;7.13;3.17;;;-2.30;99.90;;;;;;4927232;28;20043;-60
2024/01/09 02:43:03;;;;;;;10.43;3.57;;;-2.30;99.90;;;;;;4925572;28;20073;-60
2024/01/09 02:45:28;;;;;;;6.20;2.97;;;-2.30;99.90;;;;;;4927564;28;20073;-60
2024/01/09 02:47:54;;;;;;;7.87;3.27;;;-2.30;99.90;;;;;;4925558;28;20097;-60
2024/01/09 02:50:20;;;;;;;7.23;3.13;;;-2.30;99.90;;;;;;4947744;28;20113;-60
2024/01/09 02:52:46;;;;;;;5.57;2.80;;;-2.30;99.90;;;;;;4931186;28;20050;-60
2024/01/09 02:55:12;;;;;;;5.87;2.43;;;-2.30;99.90;;;;;;4924074;28;20055;-60
2024/01/09 02:57:41;;;;;;;8.07;3.33;;;-2.30;99.90;;;;;;4925215;28;20047;-60
2024/01/09 03:00:10;;;;;;;6.77;3.10;;;-2.30;99.90;;;;;;4931602;28;20562;-60
2024/01/09 03:02:36;;;;;;;7.40;3.40;;;-2.30;99.90;;;;;;4924659;28;20134;-61
2024/01/09 03:05:06;;;;;;;7.63;3.93;;;-2.40;99.90;;;;;;5002726;28;20047;-60
2024/01/09 03:07:33;;;;;;;7.70;3.23;;;-2.40;99.90;;;;;;4927809;28;20410;-60
2024/01/09 03:09:59;;;;;;;10.40;3.03;;;-2.40;99.90;;;;;;4926606;28;20383;-60
2024/01/09 03:12:25;;;;;;;6.50;2.90;;;-2.40;99.90;;;;;;4945750;28;20061;-60
2024/01/09 03:14:50;;;;;;;8.47;3.37;;;-2.50;99.90;;;;;;4942135;28;20077;-60
2024/01/09 03:17:16;;;;;;;7.27;2.90;;;-2.40;99.90;;;;;;4929095;28;20043;-60
2024/01/09 03:19:43;;;;;;;5.63;2.80;;;-2.50;99.90;;;;;;4926416;28;20463;-60
2024/01/09 03:22:09;;;;;;;7.73;3.20;;;-2.50;99.90;;;;;;4911471;28;20189;-60
2024/01/09 03:24:34;;;;;;;6.67;3.13;;;-2.50;99.90;;;;;;4936305;28;20573;-60
2024/01/09 03:27:00;;;;;;;5.03;2.53;;;-2.50;99.90;;;;;;4925350;28;20043;-60
2024/01/09 03:29:26;;;;;;;7.70;3.00;;;-2.60;99.90;;;;;;4924612;28;20061;-60
2024/01/09 03:31:52;;;;;;;5.77;2.30;;;-2.50;99.90;;;;;;4927109;28;20039;-59
2024/01/09 03:34:17;;;;;;;4.93;2.77;;;-2.60;99.90;;;;;;4950771;28;20027;-59
2024/01/09 03:36:44;;;;;;;9.23;3.23;;;-2.60;99.90;;;;;;4927287;28;20044;-60
2024/01/09 03:39:12;;;;;;;6.53;3.37;;;-2.60;99.90;;;;;;4929908;28;20058;-60
2024/01/09 03:41:38;;;;;;;10.10;4.43;;;-2.60;99.90;;;;;;4916810;28;20516;-60
2024/01/09 03:44:04;;;;;;;7.03;3.53;;;-2.60;99.90;;;;;;4926317;28;20126;-59
2024/01/09 03:46:29;;;;;;;6.33;2.70;;;-2.70;99.90;;;;;;4942311;28;20365;-60
2024/01/09 03:48:56;;;;;;;7.50;3.33;;;-2.70;99.90;;;;;;4929027;28;20035;-60
2024/01/09 03:51:21;;;;;;;5.93;3.50;;;-2.70;99.90;;;;;;4932342;28;20047;-59
2024/01/09 03:53:47;;;;;;;5.97;2.50;;;-2.70;99.90;;;;;;4927707;28;20043;-60
2024/01/09 03:56:13;;;;;;;7.50;3.33;;;-2.70;99.90;;;;;;4925841;28;20632;-60
2024/01/09 03:58:39;;;;;;;5.77;2.90;;;-2.70;99.90;;;;;;4922763;28;20051;-60
2024/01/09 04:01:04;;;;;;;6.03;3.10;;;-2.70;99.90;;;;;;4944280;28;20035;-60
2024/01/09 04:03:30;;;;;;;7.00;3.10;;;-2.70;99.90;;;;;;4942021;28;20247;-60
2024/01/09 04:05:56;;;;;;;4.77;2.93;;;-2.70;99.90;;;;;;4942844;28;20275;-59
2024/01/09 04:08:21;;;;;;;5.17;2.87;;;-2.70;99.90;;;;;;4925098;28;20062;-60
2024/01/09 04:10:47;;;;;;;8.60;3.57;;;-2.80;99.90;;;;;;4915850;28;20036;-60
2024/01/09 04:13:13;;;;;;;7.23;3.83;;;-2.80;99.90;;;;;;4946872;28;20068;-60
2024/01/09 04:15:39;;;;;;;7.97;3.47;;;-2.80;99.90;;;;;;4947251;28;20047;-59
2024/01/09 04:18:04;;;;;;;7.70;3.20;;;-2.80;99.90;;;;;;4928966;28;20052;-60
2024/01/09 04:20:30;;;;;;;4.73;2.37;;;-2.80;99.90;;;;;;4927672;28;20051;-60
2024/01/09 04:22:56;;;;;;;8.97;3.20;;;-2.80;99.90;;;;;;4913533;28;20035;-59
2024/01/09 04:25:21;;;;;;;7.00;2.70;;;-2.80;99.90;;;;;;4928999;28;20054;-59
2024/01/09 04:27:47;;;;;;;6.40;3.17;;;-2.90;99.90;;;;;;4932474;28;20517;-60
2024/01/09 04:30:13;;;;;;;5.97;2.50;;;-2.80;99.90;;;;;;4948241;28;20101;-60
2024/01/09 04:32:39;;;;;;;6.67;3.30;;;-2.90;99.90;;;;;;4931262;28;20664;-60
2024/01/09 04:35:05;;;;;;;4.93;2.77;;;-2.90;99.90;;;;;;4947009;28;20041;-60
2024/01/09 04:37:30;;;;;;;6.40;2.90;;;-2.90;99.90;;;;;;4927849;28;20608;-60
2024/01/09 04:39:56;;;;;;;6.93;2.80;;;-2.90;99.90;;;;;;4930245;28;20050;-60
2024/01/09 04:42:21;;;;;;;6.17;3.10;;;-2.90;99.90;;;;;;4930610;28;20057;-60
2024/01/09 04:44:47;;;;;;;5.63;2.70;;;-2.90;99.90;;;;;;4930047;28;20653;-60
2024/01/09 04:47:15;;;;;;;7.00;3.50;;;-2.90;99.90;;;;;;4937984;28;20128;-60
2024/01/09 04:49:42;;;;;;;4.50;2.50;;;-2.90;99.90;;;;;;4928809;28;20039;-60
2024/01/09 04:52:08;;;;;;;4.67;2.87;;;-2.90;99.90;;;;;;4918742;28;20055;-60
2024/01/09 04:54:34;;;;;;;7.27;2.60;;;-2.90;99.90;;;;;;4928965;29;20405;-59
2024/01/09 04:57:00;;;;;;;9.30;3.30;;;-2.90;99.90;;;;;;4930269;28;20035;-60
2024/01/09 04:59:26;;;;;;;6.50;3.10;;;-2.90;99.90;;;;;;4928646;28;20050;-60
2024/01/09 05:01:51;;;;;;;7.10;3.27;;;-2.90;99.90;;;;;;4946679;28;20126;-60
2024/01/09 05:04:17;;;;;;;8.67;2.90;;;-2.90;99.90;;;;;;4933219;28;20490;-60
2024/01/09 05:06:43;;;;;;;6.93;3.03;;;-2.90;99.90;;;;;;4932910;28;20047;-60
2024/01/09 05:09:09;;;;;;;6.97;3.03;;;-2.90;99.90;;;;;;4950918;28;20294;-59
2024/01/09 05:11:35;;;;;;;6.27;3.90;;;-3.00;99.90;;;;;;4955815;28;20037;-60
2024/01/09 05:14:01;;;;;;;6.10;3.60;;;-3.00;99.90;;;;;;4956464;28;20066;-60
2024/01/09 05:16:27;;;;;;;5.20;2.93;;;-3.00;99.90;;;;;;4939987;28;20050;-60
2024/01/09 05:18:53;;;;;;;4.20;2.57;;;-3.00;99.90;;;;;;4940587;28;20043;-60
2024/01/09 05:21:19;;;;;;;9.67;4.30;;;-3.00;99.90;;;;;;4931241;28;20058;-60
2024/01/09 05:23:45;;;;;;;7.13;2.73;;;-3.00;99.90;;;;;;4935101;28;20122;-60
2024/01/09 05:26:11;;;;;;;5.60;2.87;;;-3.00;99.90;;;;;;4929387;28;20069;-59
2024/01/09 05:28:37;;;;;;;5.67;2.90;;;-3.00;99.90;;;;;;4912463;28;20128;-60
2024/01/09 05:31:03;;;;;;;7.83;3.83;;;-3.00;99.90;;;;;;4932893;28;20074;-60
2024/01/09 05:33:28;;;;;;;6.20;3.17;;;-3.00;99.90;;;;;;4930328;28;20051;-60
2024/01/09 05:35:54;;;;;;;6.33;2.97;;;-3.00;99.90;;;;;;4937828;28;20122;-60
2024/01/09 05:38:20;;;;;;;7.70;3.33;;;-3.10;99.90;;;;;;4932264;28;20043;-60
2024/01/09 05:40:46;;;;;;;7.10;3.53;;;-3.00;99.90;;;;;;4930141;28;20043;-60
2024/01/09 05:43:12;;;;;;;6.00;3.30;;;-3.00;99.90;;;;;;4930440;28;20043;-60
2024/01/09 05:45:38;;;;;;;8.50;3.57;;;-3.10;99.90;;;;;;4946048;28;20043;-60
2024/01/09 05:48:04;;;;;;;8.83;3.60;;;-3.10;99.90;;;;;;4928666;28;20051;-60
2024/01/09 05:50:30;;;;;;;7.93;4.47;;;-3.10;99.90;;;;;;4939881;28;20047;-61
2024/01/09 05:52:56;;;;;;;6.73;3.57;;;-3.10;99.90;;;;;;4927431;28;20390;-61
2024/01/09 05:55:22;;;;;;;6.60;3.83;;;-3.10;99.90;;;;;;4929475;28;20041;-61
2024/01/09 05:57:48;;;;;;;8.37;3.50;;;-3.10;99.90;;;;;;4946806;28;20035;-61
2024/01/09 06:00:15;;;;;;;8.43;4.00;;;-3.10;99.90;;;;;;4927999;28;20490;-61
2024/01/09 06:02:40;;;;;;;6.30;3.90;;;-3.10;99.90;;;;;;4914270;28;20149;-61
2024/01/09 06:05:06;;;;;;;6.47;3.33;;;-3.10;99.90;;;;;;4994790;28;20521;-61
2024/01/09 06:07:32;;;;;;;6.73;3.67;;;-3.20;99.90;;;;;;4945490;28;20042;-61
2024/01/09 06:09:58;;;;;;;6.67;3.20;;;-3.20;99.90;;;;;;4927492;28;20365;-61
2024/01/09 06:12:24;;;;;;;7.57;4.07;;;-3.20;99.90;;;;;;4939694;28;20045;-61
2024/01/09 06:14:50;;;;;;;8.70;3.63;;;-3.20;99.90;;;;;;4928358;28;20085;-61
2024/01/09 06:17:16;;;;;;;7.70;4.20;;;-3.20;99.90;;;;;;4935252;28;20039;-61
2024/01/09 06:19:42;;;;;;;7.87;3.77;;;-3.20;99.90;;;;;;4930175;28;20376;-60
2024/01/09 06:22:07;;;;;;;8.73;4.17;;;-3.20;99.90;;;;;;4916112;28;20074;-61
2024/01/09 06:24:33;;;;;;;5.20;3.23;;;-3.20;99.90;;;;;;4928488;28;20513;-61
2024/01/09 06:26:59;;;;;;;8.20;3.47;;;-3.20;99.90;;;;;;4930616;28;20090;-61
2024/01/09 06:29:25;;;;;;;8.93;3.60;;;-3.20;99.90;;;;;;4926975;28;20474;-61
2024/01/09 06:31:50;;;;;;;5.17;3.00;;;-3.20;99.90;;;;;;4944594;28;20471;-60
2024/01/09 06:34:16;;;;;;;7.40;4.23;;;-3.30;99.90;;;;;;4928836;28;20043;-60
2024/01/09 06:36:45;;;;;;;6.63;3.87;;;-3.30;99.90;;;;;;4927258;28;20130;-61
2024/01/09 06:39:12;;;;;;;8.63;5.00;;;-3.30;99.90;;;;;;4937898;28;20043;-61
2024/01/09 06:41:37;;;;;;;10.07;5.50;;;-3.30;99.90;;;;;;4927718;28;20090;-61
2024/01/09 06:44:03;;;;;;;6.67;4.40;;;-3.30;99.90;;;;;;4929351;28;20051;-61
2024/01/09 06:46:29;;;;;;;8.50;5.40;;;-3.30;99.90;;;;;;4940440;28;20726;-61
2024/01/09 06:48:55;;;;;;;8.63;4.47;;;-3.30;99.90;;;;;;4934339;28;20457;-61
2024/01/09 06:51:21;;;;;;;7.07;4.10;;;-3.40;99.90;;;;;;4929830;28;20069;-61
2024/01/09 06:53:46;;;;;;;8.70;4.03;;;-3.40;99.90;;;;;;5011654;28;20043;-61
2024/01/09 06:56:12;;;;;;;10.93;4.70;;;-3.40;99.90;;;;;;4936942;28;20043;-61
2024/01/09 06:58:38;;;;;;;8.00;4.30;;;-3.40;99.90;;;;;;4937413;28;20486;-61
2024/01/09 07:01:05;;;;;;;6.63;3.97;;;-3.50;99.90;;;;;;4925970;28;20049;-60
2024/01/09 07:03:31;;;;;;;9.00;4.13;;;-3.50;99.90;;;;;;4917504;28;20109;-61
2024/01/09 07:05:57;;;;;;;6.03;3.47;;;-3.50;99.90;;;;;;4939969;28;20031;-61
2024/01/09 07:08:23;;;;;;;7.80;3.43;;;-3.50;99.90;;;;;;4946970;28;20475;-61
2024/01/09 07:10:48;;;;;;;7.97;3.83;;;-3.50;99.90;;;;;;4925879;28;20055;-60
2024/01/09 07:13:14;;;;;;;8.50;3.73;;;-3.50;99.90;;;;;;4929320;28;20047;-60
2024/01/09 07:15:41;;;;;;;6.60;3.73;;;-3.60;99.90;;;;;;4926959;28;20035;-61
2024/01/09 07:18:06;;;;;;;6.17;3.27;;;-3.60;99.90;;;;;;4926003;28;20409;-61
2024/01/09 07:20:32;;;;;;;6.03;3.50;;;-3.60;99.90;;;;;;4930246;28;20047;-60
2024/01/09 07:22:58;;;;;;;7.13;3.63;;;-3.60;99.90;;;;;;4928103;28;20116;-60
2024/01/09 07:25:23;;;;;;;9.13;3.53;;;-3.60;99.90;;;;;;4927543;28;20059;-60
2024/01/09 07:27:49;;;;;;;9.70;4.00;;;-3.60;99.90;;;;;;4935204;28;20050;-61
2024/01/09 07:30:16;;;;;;;6.33;3.40;;;-3.60;99.90;;;;;;4916194;28;20039;-61
2024/01/09 07:32:42;;;;;;;8.07;3.60;;;-3.60;99.90;;;;;;4936561;28;20054;-60
2024/01/09 07:35:08;;;;;;;5.63;3.30;;;-3.60;99.90;;;;;;4928705;28;20035;-60
2024/01/09 07:37:34;;;;;;;6.83;3.67;;;-3.70;99.90;;;;;;4928234;28;20182;-58
2024/01/09 07:40:00;;;;;;;7.60;3.20;;;-3.70;99.90;;;;;;4932952;28;20524;-60
2024/01/09 07:42:25;;;;;;;5.93;3.57;;;-3.70;99.90;;;;;;4935892;28;20055;-60
2024/01/09 07:44:51;;;;;;;6.47;3.43;;;-3.70;99.90;;;;;;4944045;28;20054;-60
2024/01/09 07:47:17;;;;;;;7.47;4.67;;;-3.70;99.90;;;;;;4927885;28;20055;-61
2024/01/09 07:49:42;;;;;;;7.03;3.77;;;-3.70;99.90;;;;;;4931711;28;20046;-61
2024/01/09 07:52:09;;;;;;;6.77;4.03;;;-3.70;99.90;;;;;;5013469;28;20138;-60
2024/01/09 07:54:35;;;;;;;7.33;3.50;;;-3.70;99.90;;;;;;4943632;28;20116;-60
2024/01/09 07:57:01;;;;;;;7.00;3.60;;;-3.70;99.90;;;;;;4931537;28;20546;-60
2024/01/09 07:59:27;;;;;;;6.87;3.13;;;-3.70;99.90;;;;;;4946567;28;20382;-61
2024/01/09 08:01:54;;;;;;;5.77;3.27;;;-3.70;99.90;;;;;;4932709;28;20057;-61
2024/01/09 08:04:22;;;;;;;8.97;3.50;;;-3.70;99.90;;;;;;4928376;28;20055;-60
2024/01/09 08:06:50;;;;;;;8.07;3.33;;;-3.70;99.90;;;;;;4946922;28;20309;-60
2024/01/09 08:09:19;;;;;;;6.70;3.33;;;-3.70;99.90;;;;;;4927800;28;20066;-61
2024/01/09 08:11:46;;;;;;;8.40;3.37;;;-3.70;99.90;;;;;;4933665;28;20141;-60
2024/01/09 08:14:13;;;;;;;5.50;3.00;;;-3.70;99.90;;;;;;4935694;28;20039;-61
2024/01/09 08:16:40;;;;;;;6.70;3.33;;;-3.70;99.90;;;;;;4909088;28;20043;-59
2024/01/09 08:19:06;;;;;;;6.23;2.93;;;-3.70;99.90;;;;;;4947465;28;20392;-60
2024/01/09 08:21:34;;;;;;;6.67;3.37;;;-3.60;99.90;;;;;;4916526;28;20282;-60
2024/01/09 08:24:00;;;;;;;8.37;3.90;;;-3.60;99.90;;;;;;4932690;28;20053;-60
2024/01/09 08:26:25;;;;;;;9.47;3.37;;;-3.60;99.90;;;;;;4944086;28;20047;-60
2024/01/09 08:28:51;;;;;;;7.97;3.90;;;-3.60;99.90;;;;;;4930999;28;20073;-60
2024/01/09 08:31:17;;;;;;;5.97;3.20;;;-3.50;99.90;;;;;;4946635;28;20047;-60
2024/01/09 08:33:43;;;;;;;6.53;3.60;;;-3.50;99.90;;;;;;4930427;28;20047;-61
2024/01/09 08:36:12;;;;;;;6.03;3.20;;;-3.50;99.90;;;;;;4930952;28;20086;-61
2024/01/09 08:38:38;;;;;;;6.03;3.57;;;-3.40;99.90;;;;;;4954340;28;20661;-60
2024/01/09 08:41:05;;;;;;;9.27;4.00;;;-3.40;99.90;;;;;;4930895;28;20108;-60
2024/01/09 08:43:31;;;;;;;8.17;4.93;;;-3.40;99.90;;;;;;4941644;28;20051;-60
2024/01/09 08:45:56;;;;;;;7.27;3.50;;;-3.40;99.90;;;;;;4951815;28;20043;-60
2024/01/09 08:48:22;;;;;;;7.57;3.67;;;-3.40;99.90;;;;;;4924185;28;20555;-60
2024/01/09 08:50:49;;;;;;;7.43;3.97;;;-3.40;99.90;;;;;;4928692;28;20136;-60
2024/01/09 08:53:15;;;;;;;6.73;3.83;;;-3.30;99.90;;;;;;4934217;28;20035;-61
2024/01/09 08:55:41;;;;;;;6.07;3.50;;;-3.30;99.90;;;;;;4947109;28;20548;-60
2024/01/09 08:58:07;;;;;;;8.80;4.43;;;-3.30;99.90;;;;;;4939715;28;20287;-60
2024/01/09 09:00:32;;;;;;;5.93;3.83;;;-3.30;99.90;;;;;;4929633;28;20047;-60
2024/01/09 09:02:59;;;;;;;9.47;5.87;;;-3.30;99.90;;;;;;4928310;28;20152;-59
2024/01/09 09:05:25;;;;;;;11.47;7.43;;;-3.20;99.90;;;;;;4930667;28;20066;-60
2024/01/09 09:07:51;;;;;;;7.17;3.80;;;-3.10;99.90;;;;;;4919300;28;20043;-60
2024/01/09 09:10:17;;;;;;;8.27;4.20;;;-3.10;99.90;;;;;;4946626;28;20049;-60
2024/01/09 09:12:43;;;;;;;12.57;8.03;;;-3.10;99.90;;;;;;4932845;28;20046;-60
2024/01/09 09:15:09;;;;;;;6.33;3.33;;;-3.00;99.90;;;;;;4931418;28;20134;-60
2024/01/09 09:17:35;;;;;;;9.17;5.60;;;-2.90;99.90;;;;;;4931645;28;20043;-61
2024/01/09 09:20:00;;;;;;;7.30;3.30;;;-2.90;99.90;;;;;;4935219;28;20051;-60
2024/01/09 09:22:28;;;;;;;7.70;3.53;;;-2.80;99.90;;;;;;4932326;28;20453;-60
2024/01/09 09:24:55;;;;;;;8.13;3.33;;;-2.80;99.90;;;;;;4930539;28;20054;-61
2024/01/09 09:27:20;;;;;;;7.53;3.27;;;-2.70;99.90;;;;;;4941440;28;20047;-61
2024/01/09 09:29:46;;;;;;;5.20;2.87;;;-2.60;99.90;;;;;;4931694;28;20389;-60
2024/01/09 09:32:12;;;;;;;5.27;3.30;;;-2.60;99.90;;;;;;4933356;28;20114;-60
2024/01/09 09:34:41;;;;;;;7.83;3.30;;;-2.50;99.90;;;;;;4960299;28;20035;-61
2024/01/09 09:37:07;;;;;;;5.70;3.37;;;-2.50;99.90;;;;;;4962709;28;20046;-61
2024/01/09 09:39:36;;;;;;;6.93;3.80;;;-2.40;99.90;;;;;;4931594;28;20043;-61
2024/01/09 09:42:02;;;;;;;5.40;3.00;;;-2.40;99.90;;;;;;4930884;28;20058;-61
2024/01/09 09:44:32;;;;;;;6.60;3.67;;;-2.30;99.90;;;;;;4929234;29;20047;-61
2024/01/09 09:46:59;;;;;;;7.27;3.50;;;-2.20;99.90;;;;;;4913445;28;20047;-61
2024/01/09 09:49:28;;;;;;;5.80;3.20;;;-2.20;99.90;;;;;;4933114;28;20410;-61
2024/01/09 09:51:54;;;;;;;7.47;3.70;;;-2.00;99.90;;;;;;4928112;28;20047;-61
2024/01/09 09:54:22;;;;;;;6.90;3.17;;;-2.00;99.90;;;;;;4950189;28;20047;-61
2024/01/09 09:56:48;;;;;;;5.60;3.00;;;-2.00;99.90;;;;;;4930803;28;20623;-61
2024/01/09 09:59:15;;;;;;;5.33;2.97;;;-1.90;99.90;;;;;;4916416;28;20078;-61
2024/01/09 10:01:42;;;;;;;5.33;3.00;;;-1.90;99.90;;;;;;4930357;28;20470;-61
2024/01/09 10:04:29;;;;;;;7.00;3.63;;;-1.90;99.90;;;;;;4932116;28;20050;-62
2024/01/09 10:06:57;;;;;;;5.60;3.10;;;-1.80;99.90;;;;;;4930640;28;20422;-62
2024/01/09 10:09:31;;;;;;;5.90;3.33;;;-1.70;99.90;;;;;;4927398;28;20062;-62
2024/01/09 10:11:56;;;;;;;5.23;3.03;;;-1.70;99.90;;;;;;4938419;28;20607;-62
2024/01/09 10:14:28;;;;;;;10.03;4.53;;;-1.60;99.90;;;;;;4931456;28;20093;-62
2024/01/09 10:16:55;;;;;;;11.33;3.73;;;-1.60;99.90;;;;;;4929168;28;20043;-61
2024/01/09 10:19:24;;;;;;;5.63;3.20;;;-1.60;99.90;;;;;;4930186;28;20114;-62
2024/01/09 10:21:51;;;;;;;5.60;3.10;;;-1.50;99.90;;;;;;4930235;28;20104;-62
2024/01/09 10:24:17;;;;;;;10.53;4.70;;;-1.50;99.90;;;;;;4925325;28;20063;-61
2024/01/09 10:26:43;;;;;;;5.90;3.13;;;-1.40;99.90;;;;;;4941892;28;20047;-62
2024/01/09 10:29:10;;;;;;;5.10;2.70;;;-1.30;99.90;;;;;;4935601;28;20051;-61
2024/01/09 10:31:38;;;;;;;6.90;3.60;;;-1.30;99.90;;;;;;4938334;28;20059;-61
2024/01/09 10:34:05;;;;;;;7.00;2.90;;;-1.30;99.90;;;;;;4937710;28;20263;-61
2024/01/09 10:36:31;;;;;;;4.63;2.47;;;-1.20;99.90;;;;;;4912082;28;20047;-61
2024/01/09 10:39:04;;;;;;;5.07;3.00;;;-1.10;99.90;;;;;;4924685;28;20040;-61
2024/01/09 10:41:31;;;;;;;4.13;2.43;;;-1.10;99.90;;;;;;4930131;28;20051;-61
2024/01/09 10:43:57;;;;;;;6.03;3.00;;;-1.00;99.90;;;;;;4942028;28;20302;-61
2024/01/09 10:46:24;;;;;;;6.10;3.00;;;-1.00;99.90;;;;;;4943286;28;20636;-62
2024/01/09 10:48:51;;;;;;;5.33;2.70;;;-0.90;99.90;;;;;;4922180;28;20082;-62
2024/01/09 10:51:18;;;;;;;5.87;2.63;;;-0.80;99.90;;;;;;4929126;28;20043;-62
2024/01/09 10:53:47;;;;;;;5.23;2.50;;;-0.70;99.90;;;;;;4926493;28;20052;-62
2024/01/09 10:56:17;;;;;;;5.20;2.47;;;-0.70;99.90;;;;;;4931241;28;20038;-62
2024/01/09 10:58:48;;;;;;;5.17;2.90;;;-0.70;99.90;;;;;;4923248;28;20039;-62
2024/01/09 11:01:14;;;;;;;4.77;2.43;;;-0.60;99.90;;;;;;4948703;28;20039;-62
2024/01/09 11:03:43;;;;;;;7.60;3.17;;;-0.50;99.90;;;;;;4921753;28;20039;-62
2024/01/09 11:06:09;;;;;;;9.23;2.70;;;-0.40;99.90;;;;;;4928958;28;20134;-62
2024/01/09 11:08:35;;;;;;;4.47;2.20;;;-0.40;99.90;;;;;;4924997;28;20079;-62
2024/01/09 11:11:13;;;;;;;4.63;2.17;;;-0.30;99.90;;;;;;4943211;28;20457;-62
2024/01/09 11:13:42;;;;;;;6.20;2.67;;;-0.30;99.90;;;;;;4927168;28;20057;-62
2024/01/09 11:16:10;;;;;;;11.23;3.00;;;-0.20;99.90;;;;;;4928836;28;20055;-62
2024/01/09 11:18:38;;;;;;;4.97;1.97;;;-0.20;99.90;;;;;;4927634;28;20581;-61
2024/01/09 11:21:04;;;;;;;5.33;2.50;;;-0.10;99.90;;;;;;4926310;28;20130;-62
2024/01/09 11:23:54;;;;;;;7.73;2.70;;;-0.10;99.90;;;;;;4927378;28;20055;-61
2024/01/09 11:26:22;;;;;;;5.80;3.60;;;0.00;99.90;;;;;;4928457;28;20441;-62
2024/01/09 11:28:48;;;;;;;4.80;2.57;;;0.10;99.90;;;;;;4942461;28;20162;-64
2024/01/09 11:31:20;;;;;;;4.93;2.73;;;0.20;99.90;;;;;;4928633;28;20309;-64
2024/01/09 11:33:51;;;;;;;5.95;2.75;;;0.30;99.90;;;;;;4930491;28;20212;-61
2024/01/09 11:36:34;;;;;;;6.83;3.37;;;0.30;99.90;;;;;;4932454;28;20387;-64
2024/01/09 11:39:00;;;;;;;5.20;3.10;;;0.40;99.90;;;;;;4931710;28;20046;-63
2024/01/09 11:41:37;;;;;;;5.70;2.40;;;0.40;99.90;;;;;;4932955;28;20519;-63
2024/01/09 11:44:05;;;;;;;6.10;2.50;;;0.50;99.90;;;;;;4935223;28;20046;-64
2024/01/09 11:46:38;;;;;;;3.17;2.00;;;0.50;99.90;;;;;;4923633;28;20039;-61
2024/01/09 11:49:05;;;;;;;4.13;2.73;;;0.70;99.90;;;;;;4931394;28;20043;-64
2024/01/09 11:51:33;;;;;;;5.40;2.40;;;0.60;99.90;;;;;;4926818;28;20314;-64
2024/01/09 11:54:00;;;;;;;5.17;2.73;;;0.60;99.90;;;;;;4941318;28;20040;-62
2024/01/09 11:56:28;;;;;;;4.70;2.63;;;0.70;99.90;;;;;;4935665;28;20047;-64
2024/01/09 11:58:54;;;;;;;4.38;2.42;;;0.80;99.90;;;;;;4947190;28;20260;-64
2024/01/09 12:01:23;;;;;;;6.23;3.50;;;0.70;99.90;;;;;;4926180;28;20039;-63
2024/01/09 12:03:57;;;;;;;6.82;2.78;;;0.70;99.90;;;;;;4928848;28;20039;-64
2024/01/09 12:06:24;;;;;;;6.05;2.97;;;0.80;99.90;;;;;;4924722;28;20040;-63
2024/01/09 12:08:51;;;;;;;6.17;2.97;;;0.80;99.90;;;;;;4948546;28;20040;-63
2024/01/09 12:11:17;;;;;;;7.10;3.42;;;0.80;99.90;;;;;;4939052;28;20456;-63
2024/01/09 12:13:44;;;;;;;6.03;2.85;;;0.80;99.90;;;;;;5008155;28;20109;-63
2024/01/09 12:16:16;;;;;;;6.28;3.38;;;0.90;99.90;;;;;;4928339;28;20406;-63
2024/01/09 12:18:54;;;;;;;5.63;2.85;;;0.90;99.90;;;;;;4930558;28;20039;-64
2024/01/09 12:21:24;;;;;;;5.10;3.20;;;0.70;99.90;;;;;;4929889;28;20383;-64
2024/01/09 12:23:53;;;;;;;5.55;3.08;;;0.70;99.90;;;;;;4924337;28;20297;-64
2024/01/09 12:26:20;;;;;;;10.82;3.28;;;0.70;99.90;;;;;;5012617;28;20136;-63
2024/01/09 12:28:50;;;;;;;5.07;2.60;;;0.70;99.90;;;;;;4944801;28;20054;-63
2024/01/09 12:31:17;;;;;;;5.15;3.10;;;0.60;99.90;;;;;;4926063;28;20042;-64
2024/01/09 12:33:44;;;;;;;6.60;3.53;;;0.60;99.90;;;;;;4912706;28;20040;-63
2024/01/09 12:36:10;;;;;;;5.88;3.25;;;0.60;99.90;;;;;;4928818;28;20567;-61
2024/01/09 12:38:37;;;;;;;8.05;3.45;;;0.50;99.90;;;;;;4929831;28;20126;-63
2024/01/09 12:41:06;;;;;;;5.77;3.10;;;0.50;99.90;;;;;;4945080;28;20043;-63
2024/01/09 12:43:36;;;;;;;6.72;3.67;;;0.60;99.90;;;;;;4931881;28;20104;-62
2024/01/09 12:46:04;;;;;;;5.20;3.28;;;0.50;99.90;;;;;;4932803;28;20047;-63